Current Weather

Phoenix Sky Harbor Intl Airpo

Phoenix Sky Harbor Intl Airpo, Arizona (KPHX)

Report from: Thursday, May 19, 2022 9:51 AM MST
Current time: Thursday, May 19, 2022 10:46 AM MST

Nearby weather
Weather history
Weather forecast

Temperature30.0°C (86.0°F)
Heat index28.2°C (82.7°F)
Dew point2.2°C (36.0°F)
Winds 5 kts (2.6 m/s, 5.8 mph) West (280°)
Visibility10 mi. (16.1 km)
Clouds Few clouds 25,000 ft. (7,620 m)
Altimeter29.85 in.Hg (1011 mB)
Relative humidity17 %
Density altitude1,911 ft. (583 m)
Sea-level pressure100.9 kPa (1009 mB, 29.78 in.Hg)
Remarks Automated weather observing station with precipitation discriminator
Flight conditions Visual Meteorological Conditions
Raw dataKPHX 191651Z 28005KT 10SM FEW250 30/02 A2985 RMK AO2 SLP086 T03000022
An error has occurred. This application may no longer respond until reloaded. Reload 🗙